createdAt,value
2023-09-26T00:00:24.682Z,100894.84
2023-09-26T00:05:26.099Z,100889.38
2023-09-26T00:10:27.349Z,100898.66
2023-09-26T00:15:28.541Z,100893.97
2023-09-26T00:20:31.534Z,100898.06
2023-09-26T00:25:32.710Z,100908.97
2023-09-26T00:30:33.911Z,100911.72
2023-09-26T00:35:35.263Z,100909.69
2023-09-26T00:40:36.442Z,100898.03
2023-09-26T00:45:37.938Z,100894.63
2023-09-26T00:50:39.106Z,100894.22
2023-09-26T00:55:40.281Z,100890.06
2023-09-26T01:00:41.466Z,100893.75
2023-09-26T01:05:42.632Z,100897.38
2023-09-26T01:10:43.809Z,100891.66
2023-09-26T01:15:45.119Z,100887.00
2023-09-26T01:20:46.372Z,100890.19
2023-09-26T01:25:47.541Z,100889.91
2023-09-26T01:30:49.499Z,100861.53
2023-09-26T01:35:52.550Z,100873.94
2023-09-26T01:40:53.777Z,100870.81
2023-09-26T01:45:55.756Z,100877.25
2023-09-26T01:50:57.363Z,100870.22
2023-09-26T01:55:58.538Z,100861.00
2023-09-26T02:00:59.748Z,100860.53
2023-09-26T02:06:01.168Z,100856.91
2023-09-26T02:11:02.422Z,100853.75
2023-09-26T02:16:04.945Z,100851.13
2023-09-26T02:21:06.214Z,100846.38
2023-09-26T02:26:07.377Z,100852.22
2023-09-26T02:31:08.600Z,100840.66
2023-09-26T02:36:09.833Z,100843.97
2023-09-26T02:41:11.186Z,100848.78
2023-09-26T02:46:12.408Z,100839.41
2023-09-26T02:51:13.636Z,100831.66
2023-09-26T02:56:14.799Z,100840.13
2023-09-26T03:01:16.276Z,100836.00
2023-09-26T03:06:17.626Z,100845.53
2023-09-26T03:11:18.830Z,100850.59
2023-09-26T03:16:20.182Z,100838.28
2023-09-26T03:21:21.570Z,100835.69
2023-09-26T03:26:22.793Z,100835.69
2023-09-26T03:31:24.109Z,100837.31
2023-09-26T03:36:25.571Z,100830.28
2023-09-26T03:41:26.777Z,100825.88
2023-09-26T03:46:28.066Z,100825.88
2023-09-26T03:51:29.625Z,100822.97
2023-09-26T03:56:30.801Z,100817.00
2023-09-26T04:01:32.149Z,100820.41
2023-09-26T04:06:33.636Z,100811.72
2023-09-26T04:11:34.867Z,100804.31
2023-09-26T04:16:36.206Z,100811.66
2023-09-26T04:21:37.416Z,100820.03
2023-09-26T04:26:38.604Z,100814.56
2023-09-26T04:31:39.858Z,100811.16
2023-09-26T04:36:41.126Z,100812.31
2023-09-26T04:41:42.369Z,100799.22
2023-09-26T04:46:43.768Z,100797.22
2023-09-26T04:51:45.062Z,100799.09
2023-09-26T04:56:46.871Z,100793.41
2023-09-26T05:01:48.945Z,100791.88
2023-09-26T05:06:50.136Z,100782.41
2023-09-26T05:11:51.328Z,100781.84
2023-09-26T05:16:52.570Z,100782.56
2023-09-26T05:21:53.781Z,100791.75
2023-09-26T05:26:54.994Z,100791.56
2023-09-26T05:31:56.266Z,100794.56
2023-09-26T05:36:57.605Z,100808.03
2023-09-26T05:41:58.933Z,100805.41
2023-09-26T05:47:00.479Z,100800.44
2023-09-26T05:52:01.754Z,100808.09
2023-09-26T05:57:04.271Z,100802.09
2023-09-26T06:02:05.694Z,100817.91
2023-09-26T06:07:07.022Z,100810.34
2023-09-26T06:12:08.312Z,100806.72
2023-09-26T06:17:09.581Z,100803.59
2023-09-26T06:22:10.835Z,100801.19
2023-09-26T06:27:12.259Z,100800.88
2023-09-26T06:32:13.547Z,100799.94
2023-09-26T06:37:14.772Z,100806.94
2023-09-26T06:42:15.970Z,100809.97
2023-09-26T06:47:18.914Z,100808.28
2023-09-26T06:52:20.246Z,100810.31
2023-09-26T06:57:27.514Z,100795.50
2023-09-26T07:02:28.804Z,100798.06
2023-09-26T07:07:32.783Z,100791.69
2023-09-26T07:12:33.960Z,100794.72
2023-09-26T07:17:37.962Z,100793.38
2023-09-26T07:22:40.889Z,100785.38
2023-09-26T07:27:43.785Z,100782.56
2023-09-26T07:32:46.133Z,100785.50
2023-09-26T07:37:47.371Z,100783.88
2023-09-26T07:42:48.674Z,100800.06
2023-09-26T07:47:49.924Z,100805.94
2023-09-26T07:52:51.283Z,100807.97
2023-09-26T07:57:52.508Z,100808.19
2023-09-26T08:02:53.832Z,100799.72
2023-09-26T08:07:55.093Z,100804.47
2023-09-26T08:12:56.327Z,100807.56
2023-09-26T08:17:57.578Z,100806.75
2023-09-26T08:22:58.850Z,100801.88
2023-09-26T08:28:00.629Z,100794.50
2023-09-26T08:33:02.077Z,100793.88
2023-09-26T08:38:03.375Z,100795.47
2023-09-26T08:43:05.278Z,100805.88
2023-09-26T08:48:06.506Z,100800.09
2023-09-26T08:53:07.740Z,100802.72
2023-09-26T08:58:08.978Z,100808.00
2023-09-26T09:03:12.313Z,100804.75
2023-09-26T09:08:14.904Z,100801.50
2023-09-26T09:13:16.187Z,100803.69
2023-09-26T09:18:17.461Z,100793.38
2023-09-26T09:23:18.721Z,100797.63
2023-09-26T09:28:20.584Z,100793.00
2023-09-26T09:33:21.781Z,100783.84
2023-09-26T09:38:22.940Z,100767.47
2023-09-26T09:43:26.330Z,100773.31
2023-09-26T09:48:27.535Z,100756.78
2023-09-26T09:53:29.699Z,100761.38
2023-09-26T09:58:30.994Z,100763.09
2023-09-26T10:03:34.717Z,100762.75
2023-09-26T10:08:35.936Z,100768.81
2023-09-26T10:13:37.356Z,100766.25
2023-09-26T10:18:38.722Z,100757.44
2023-09-26T10:23:39.970Z,100762.88
2023-09-26T10:28:41.209Z,100758.19
2023-09-26T10:33:42.445Z,100752.00
2023-09-26T10:38:43.799Z,100742.59
2023-09-26T10:49:06.351Z,100744.31
2023-09-26T10:54:07.693Z,100737.69
2023-09-26T10:59:08.879Z,100738.38
2023-09-26T11:04:10.230Z,100736.00
2023-09-26T11:09:13.111Z,100723.47
2023-09-26T11:14:14.505Z,100730.72
2023-09-26T11:19:15.856Z,100726.03
2023-09-26T11:24:17.059Z,100722.72
2023-09-26T11:29:18.610Z,100713.00
2023-09-26T11:34:19.789Z,100719.59
2023-09-26T11:39:22.044Z,100709.63
2023-09-26T11:44:23.329Z,100706.94
2023-09-26T11:49:24.510Z,100704.94
2023-09-26T11:54:26.082Z,100692.59
2023-09-26T11:59:27.293Z,100688.06
2023-09-26T12:04:29.813Z,100688.81
2023-09-26T12:09:31.204Z,100676.94
2023-09-26T12:14:32.496Z,100673.50
2023-09-26T12:19:33.766Z,100668.50
2023-09-26T12:24:35.016Z,100657.38
2023-09-26T12:29:36.504Z,100656.97
2023-09-26T12:34:37.730Z,100663.81
2023-09-26T12:39:38.945Z,100664.47
2023-09-26T12:44:42.066Z,100674.00
2023-09-26T12:49:44.373Z,100674.75
2023-09-26T12:54:46.081Z,100667.53
2023-09-26T12:59:47.282Z,100664.59
2023-09-26T13:04:48.482Z,100650.78
2023-09-26T13:09:49.785Z,100651.97
2023-09-26T13:14:50.962Z,100654.66
2023-09-26T13:19:52.218Z,100652.38
2023-09-26T13:24:53.450Z,100637.34
2023-09-26T13:29:54.695Z,100648.50
2023-09-26T13:34:56.135Z,100642.34
2023-09-26T13:39:57.384Z,100637.72
2023-09-26T13:44:58.588Z,100623.47
2023-09-26T13:49:59.867Z,100635.78
2023-09-26T13:55:01.383Z,100630.34
2023-09-26T14:00:02.693Z,100622.59
2023-09-26T14:05:20.045Z,100627.53
2023-09-26T14:10:22.717Z,100618.59
2023-09-26T14:15:24.429Z,100620.03
2023-09-26T14:20:25.990Z,100617.03
2023-09-26T14:25:27.461Z,100610.09
2023-09-26T14:30:28.664Z,100616.13
2023-09-26T14:35:29.932Z,100619.78
2023-09-26T14:40:31.132Z,100619.72
2023-09-26T14:45:39.737Z,100616.91
2023-09-26T14:50:44.750Z,100608.78
2023-09-26T14:55:46.017Z,100606.69
2023-09-26T15:00:50.521Z,100616.16
2023-09-26T15:05:51.875Z,100605.28
2023-09-26T15:10:53.146Z,100608.53
2023-09-26T15:15:54.430Z,100607.19
2023-09-26T15:20:55.633Z,100603.91
2023-09-26T15:25:57.555Z,100615.59
2023-09-26T15:30:58.943Z,100612.03
2023-09-26T15:36:01.380Z,100604.91
2023-09-26T15:41:02.583Z,100611.19
2023-09-26T15:46:03.819Z,100606.50
2023-09-26T15:51:11.613Z,100609.31
2023-09-26T15:56:13.488Z,100607.13
2023-09-26T16:01:14.861Z,100597.72
2023-09-26T16:06:16.116Z,100588.75
2023-09-26T16:11:17.377Z,100593.41
2023-09-26T16:16:19.690Z,100597.31
2023-09-26T16:21:20.947Z,100589.75
2023-09-26T16:26:22.347Z,100578.69
2023-09-26T16:31:23.877Z,100587.91
2023-09-26T16:36:25.136Z,100590.38
2023-09-26T16:41:26.354Z,100593.03
2023-09-26T16:46:28.081Z,100598.16
2023-09-26T16:51:29.420Z,100601.16
2023-09-26T16:56:31.093Z,100604.63
2023-09-26T17:01:32.382Z,100612.13
2023-09-26T17:06:33.638Z,100603.47
2023-09-26T17:11:34.924Z,100609.91
2023-09-26T17:16:36.311Z,100605.38
2023-09-26T17:21:37.649Z,100614.66
2023-09-26T17:26:38.860Z,100604.50
2023-09-26T17:31:40.232Z,100615.66
2023-09-26T17:36:41.538Z,100604.81
2023-09-26T17:41:42.771Z,100608.59
2023-09-26T17:46:45.035Z,100600.41
2023-09-26T17:51:46.477Z,100599.09
2023-09-26T17:56:47.754Z,100603.81
2023-09-26T18:01:49.069Z,100601.81
2023-09-26T18:06:50.339Z,100602.28
2023-09-26T18:11:51.652Z,100596.59
2023-09-26T18:16:52.932Z,100595.66
2023-09-26T18:21:54.186Z,100607.31
2023-09-26T18:26:55.404Z,100616.53
2023-09-26T18:31:56.728Z,100620.97
2023-09-26T18:36:57.951Z,100619.41
2023-09-26T18:41:59.125Z,100617.88
2023-09-26T18:47:00.378Z,100627.41
2023-09-26T18:52:01.676Z,100635.19
2023-09-26T18:57:02.918Z,100620.19
2023-09-26T19:02:04.745Z,100631.88
2023-09-26T19:07:06.159Z,100638.09
2023-09-26T19:12:07.920Z,100625.44
2023-09-26T19:17:09.204Z,100632.97
2023-09-26T19:22:10.525Z,100628.09
2023-09-26T19:27:11.902Z,100633.66
2023-09-26T19:32:13.223Z,100638.38
2023-09-26T19:37:14.517Z,100646.25
2023-09-26T19:42:15.794Z,100649.47
2023-09-26T19:47:17.575Z,100654.78
2023-09-26T19:52:18.960Z,100656.34
2023-09-26T19:57:20.305Z,100657.28
2023-09-26T20:02:21.713Z,100648.44
2023-09-26T20:07:23.092Z,100654.31
2023-09-26T20:12:24.594Z,100662.16
2023-09-26T20:17:26.117Z,100670.78
2023-09-26T20:22:27.463Z,100668.88
2023-09-26T20:27:28.698Z,100662.97
2023-09-26T20:32:30.006Z,100662.06
2023-09-26T20:37:31.256Z,100665.38
2023-09-26T20:42:32.545Z,100675.78
2023-09-26T20:47:33.876Z,100697.28
2023-09-26T20:52:35.138Z,100703.00
2023-09-26T20:57:36.366Z,100709.34
2023-09-26T21:02:37.848Z,100703.53
2023-09-26T21:07:39.154Z,100686.59
2023-09-26T21:12:40.390Z,100684.69
2023-09-26T21:17:41.788Z,100691.78
2023-09-26T21:22:43.133Z,100685.16
2023-09-26T21:27:44.456Z,100676.47
2023-09-26T21:32:45.802Z,100666.47
2023-09-26T21:37:47.159Z,100663.25
2023-09-26T21:42:48.561Z,100667.78
2023-09-26T21:47:49.957Z,100661.91
2023-09-26T21:52:51.365Z,100670.97
2023-09-26T21:57:52.642Z,100674.91
2023-09-26T22:02:53.971Z,100668.97
2023-09-26T22:07:55.766Z,100646.06
2023-09-26T22:12:57.045Z,100643.69
2023-09-26T22:18:00.284Z,100677.22
2023-09-26T22:23:01.615Z,100686.94
2023-09-26T22:28:03.141Z,100684.63
2023-09-26T22:33:04.422Z,100685.38
2023-09-26T22:38:05.780Z,100684.41
2023-09-26T22:43:07.087Z,100664.66
2023-09-26T22:48:08.315Z,100685.44
2023-09-26T22:53:09.608Z,100690.09
2023-09-26T22:58:11.115Z,100696.03
2023-09-26T23:03:12.600Z,100677.97
2023-09-26T23:08:14.010Z,100679.06
2023-09-26T23:13:15.384Z,100686.38
2023-09-26T23:18:16.681Z,100688.25
2023-09-26T23:23:17.973Z,100698.84
2023-09-26T23:28:19.343Z,100697.47
2023-09-26T23:33:20.691Z,100699.63
2023-09-26T23:38:21.992Z,100695.28
2023-09-26T23:43:23.329Z,100696.06
2023-09-26T23:48:24.579Z,100698.53
2023-09-26T23:53:25.836Z,100692.56
2023-09-26T23:58:27.124Z,100684.94
